Page, AZ

10:39 AM MST on August 20, 2014 (GMT -0700)
Page Arizona | Change Station
CLOSE
Current Station
Personal Weather Station
Location: Page, AZ
Elevation: 4172 ft
Nearby Weather Stations

Elev 4172 ft 36.90 °N, 111.47 °W | Updated 4 seconds ago

Clear
Clear
76.7 °F
Feels Like 78 °F
N
5.0
Wind Variable Wind from North
Gusts 7.0 mph

Today
High -- | Low -- °F
--% Chance of Precip.
Yesterday
High -- | Low -- °F
Precip. -- in
5:47 AM 7:10 PM
Waning Crescent, 20% visible
Pressure 29.90 in
Visibility 10.0 miles
Clouds Clear
Heat Index 78 °F
Dew Point 57 °F
Humidity 50%
Rainfall 0.00 in
Snow Depth Not available.
UV 7 out of 12
Pollen 6.70 out of 12
Air Quality Not available.
Flu Activity Not available.
METAR KPGA 201653Z AUTO 04003KT 10SM CLR 24/13 A3007 RMK AO2 SLP124 T02390133

More Conditions Fewer Conditions

Pressure 29.90 in
Visibility 10.0 miles
Clouds Clear
Heat Index 78 °F
Dew Point 57 °F
Humidity 50%
Rainfall 0.00 in
Snow Depth Not available.
UV 7 out of 12
Pollen 6.70 out of 12
Air Quality Not available.
Flu Activity Not available.
METAR KPGA 201653Z AUTO 04003KT 10SM CLR 24/13 A3007 RMK AO2 SLP124 T02390133

More Conditions Fewer Conditions

10-Day Weather Forecast

Almanac

Astronomy

Aug. 20, 2014 Rise Set
Actual Time 5:47 AM MST 7:10 PM MST
Civil Twilight 5:19 AM MST 7:37 PM MST
Nautical Twilight 4:47 AM MST 8:10 PM MST
Astronomical Twilight 4:12 AM MST 8:44 PM MST
Moon 1:32 AM MST 3:56 PM MST
Length of Visible Light 14h 18m
Length of Day
13h 23m
Tomorrow will be 2m 8s shorter.
Waning Crescent, 20% of the Moon is Illuminated
Today
Waning Crescent
Aug 25
New
Sep 2
First Quarter
Sep 8
Full
Sep 15
Last Quarter

Today's Extremes

State Highs State Lows

Community

WunderPhotos

Upload Photos

1,745,698 photos uploaded!

WunderBlogs® & News

By Dr. Jeff Masters
Director of Meteorology, Weather Underground
By Kari Strenfel
Meteorologist, Weather Underground
By Christopher C. Burt
Weather Historian, Weather Underground
August 20, 2014
August 20, 2014
August 20, 2014

Nearby

Snow Depth

Station Depth Elevation
Snowslide Canyon 1 in 9730 ft
White Horse Lake 0 in 7180 ft
Mormon Mountain 0 in 7500 ft
Promontory 0 in 7930 ft
Heber 0 in 7640 ft

Earthquake Activity

City Distance Mag. Time & Date
No recent earthquake activity has been reported nearby.
Minimum magnitude displayed is 2.5.

Coastal Water Temperatures

Place Temperature
No Stations Reporting

Nearby Weather Stations